sensor_id;sensor_type;location;lat;lon;timestamp;temperature;humidity
4655;DHT22;2340;47.814;9.798;2023-02-28T00:02:17;-1.70;99.90
4655;DHT22;2340;47.814;9.798;2023-02-28T00:04:43;-1.70;99.90
4655;DHT22;2340;47.814;9.798;2023-02-28T00:07:09;-1.70;99.90
4655;DHT22;2340;47.814;9.798;2023-02-28T00:09:35;-1.70;99.90
4655;DHT22;2340;47.814;9.798;2023-02-28T00:12:00;-1.70;99.90
4655;DHT22;2340;47.814;9.798;2023-02-28T00:14:35;-1.60;99.90
4655;DHT22;2340;47.814;9.798;2023-02-28T00:17:00;-1.70;99.90
4655;DHT22;2340;47.814;9.798;2023-02-28T00:19:26;-1.70;99.90
4655;DHT22;2340;47.814;9.798;2023-02-28T00:21:51;-1.70;99.90
4655;DHT22;2340;47.814;9.798;2023-02-28T00:24:17;-1.70;99.90
4655;DHT22;2340;47.814;9.798;2023-02-28T00:26:42;-1.70;99.90
4655;DHT22;2340;47.814;9.798;2023-02-28T00:29:08;-1.80;99.90
4655;DHT22;2340;47.814;9.798;2023-02-28T00:31:33;-1.80;99.90
4655;DHT22;2340;47.814;9.798;2023-02-28T00:33:59;-1.80;99.90
4655;DHT22;2340;47.814;9.798;2023-02-28T00:36:24;-1.80;99.90
4655;DHT22;2340;47.814;9.798;2023-02-28T00:38:50;-1.80;99.90
4655;DHT22;2340;47.814;9.798;2023-02-28T00:41:15;-1.80;99.90
4655;DHT22;2340;47.814;9.798;2023-02-28T00:43:41;-1.80;99.90
4655;DHT22;2340;47.814;9.798;2023-02-28T00:46:07;-1.70;99.90
4655;DHT22;2340;47.814;9.798;2023-02-28T00:48:33;-1.70;99.90
4655;DHT22;2340;47.814;9.798;2023-02-28T00:50:58;-1.70;99.90
4655;DHT22;2340;47.814;9.798;2023-02-28T00:53:24;-1.60;99.90
4655;DHT22;2340;47.814;9.798;2023-02-28T00:55:50;-1.60;99.90
4655;DHT22;2340;47.814;9.798;2023-02-28T00:58:15;-1.60;99.90
4655;DHT22;2340;47.814;9.798;2023-02-28T01:00:41;-1.70;99.90
4655;DHT22;2340;47.814;9.798;2023-02-28T01:03:06;-1.70;99.90
4655;DHT22;2340;47.814;9.798;2023-02-28T01:05:32;-1.60;99.90
4655;DHT22;2340;47.814;9.798;2023-02-28T01:07:57;-1.70;99.90
4655;DHT22;2340;47.814;9.798;2023-02-28T01:10:23;-1.70;99.90
4655;DHT22;2340;47.814;9.798;2023-02-28T01:12:48;-1.60;99.90
4655;DHT22;2340;47.814;9.798;2023-02-28T01:15:14;-1.70;99.90
4655;DHT22;2340;47.814;9.798;2023-02-28T01:17:39;-1.70;99.90
4655;DHT22;2340;47.814;9.798;2023-02-28T01:20:05;-1.70;99.90
4655;DHT22;2340;47.814;9.798;2023-02-28T01:22:30;-1.70;99.90
4655;DHT22;2340;47.814;9.798;2023-02-28T01:24:56;-1.70;99.90
4655;DHT22;2340;47.814;9.798;2023-02-28T01:27:21;-1.80;99.90
4655;DHT22;2340;47.814;9.798;2023-02-28T01:29:47;-1.70;99.90
4655;DHT22;2340;47.814;9.798;2023-02-28T01:32:13;-1.70;99.90
4655;DHT22;2340;47.814;9.798;2023-02-28T01:34:38;-1.70;99.90
4655;DHT22;2340;47.814;9.798;2023-02-28T01:37:04;-1.60;99.90
4655;DHT22;2340;47.814;9.798;2023-02-28T01:39:29;-1.60;99.90
4655;DHT22;2340;47.814;9.798;2023-02-28T01:41:55;-1.70;99.90
4655;DHT22;2340;47.814;9.798;2023-02-28T01:47:04;-1.80;99.90
4655;DHT22;2340;47.814;9.798;2023-02-28T01:49:30;-1.70;99.90
4655;DHT22;2340;47.814;9.798;2023-02-28T01:51:55;-1.70;99.90
4655;DHT22;2340;47.814;9.798;2023-02-28T01:54:27;-1.70;99.90
4655;DHT22;2340;47.814;9.798;2023-02-28T01:56:54;-1.60;99.90
4655;DHT22;2340;47.814;9.798;2023-02-28T01:59:29;-1.70;99.90
4655;DHT22;2340;47.814;9.798;2023-02-28T02:01:56;-1.60;99.90
4655;DHT22;2340;47.814;9.798;2023-02-28T02:04:23;-1.70;99.90
4655;DHT22;2340;47.814;9.798;2023-02-28T02:06:48;-1.70;99.90
4655;DHT22;2340;47.814;9.798;2023-02-28T02:09:14;-1.60;99.90
4655;DHT22;2340;47.814;9.798;2023-02-28T02:11:43;-1.70;99.90
4655;DHT22;2340;47.814;9.798;2023-02-28T02:24:26;-1.70;99.90
4655;DHT22;2340;47.814;9.798;2023-02-28T02:32:28;-1.80;99.90
4655;DHT22;2340;47.814;9.798;2023-02-28T02:40:13;-1.70;99.90
4655;DHT22;2340;47.814;9.798;2023-02-28T02:45:10;-1.80;99.90
4655;DHT22;2340;47.814;9.798;2023-02-28T02:47:37;-1.80;99.90
4655;DHT22;2340;47.814;9.798;2023-02-28T02:50:07;-1.80;99.90
4655;DHT22;2340;47.814;9.798;2023-02-28T02:52:37;-1.80;99.90
4655;DHT22;2340;47.814;9.798;2023-02-28T02:55:03;-1.80;99.90
4655;DHT22;2340;47.814;9.798;2023-02-28T02:57:33;-1.90;99.90
4655;DHT22;2340;47.814;9.798;2023-02-28T02:59:59;-1.90;99.90
4655;DHT22;2340;47.814;9.798;2023-02-28T03:02:25;-1.90;99.90
4655;DHT22;2340;47.814;9.798;2023-02-28T03:04:52;-1.90;99.90
4655;DHT22;2340;47.814;9.798;2023-02-28T03:07:18;-1.90;99.90
4655;DHT22;2340;47.814;9.798;2023-02-28T03:09:50;-1.90;99.90
4655;DHT22;2340;47.814;9.798;2023-02-28T03:12:16;-1.90;99.90
4655;DHT22;2340;47.814;9.798;2023-02-28T03:14:51;-1.90;99.90
4655;DHT22;2340;47.814;9.798;2023-02-28T03:20:07;-1.90;99.90
4655;DHT22;2340;47.814;9.798;2023-02-28T03:30:04;-2.00;99.90
4655;DHT22;2340;47.814;9.798;2023-02-28T03:35:14;-1.90;99.90
4655;DHT22;2340;47.814;9.798;2023-02-28T03:37:47;-1.90;99.90
4655;DHT22;2340;47.814;9.798;2023-02-28T03:40:15;-1.90;99.90
4655;DHT22;2340;47.814;9.798;2023-02-28T03:42:43;-1.90;99.90
4655;DHT22;2340;47.814;9.798;2023-02-28T03:45:16;-1.90;99.90
4655;DHT22;2340;47.814;9.798;2023-02-28T03:47:45;-1.90;99.90
4655;DHT22;2340;47.814;9.798;2023-02-28T03:50:15;-2.00;99.90
4655;DHT22;2340;47.814;9.798;2023-02-28T03:52:47;-2.00;99.90
4655;DHT22;2340;47.814;9.798;2023-02-28T03:55:14;-2.00;99.90
4655;DHT22;2340;47.814;9.798;2023-02-28T03:57:41;-2.00;99.90
4655;DHT22;2340;47.814;9.798;2023-02-28T04:00:10;-2.00;99.90
4655;DHT22;2340;47.814;9.798;2023-02-28T04:02:38;-2.00;99.90
4655;DHT22;2340;47.814;9.798;2023-02-28T04:05:05;-1.90;99.90
4655;DHT22;2340;47.814;9.798;2023-02-28T04:07:30;-1.90;99.90
4655;DHT22;2340;47.814;9.798;2023-02-28T04:09:56;-2.00;99.90
4655;DHT22;2340;47.814;9.798;2023-02-28T04:12:22;-2.00;99.90
4655;DHT22;2340;47.814;9.798;2023-02-28T04:14:48;-1.90;99.90
4655;DHT22;2340;47.814;9.798;2023-02-28T04:17:14;-1.90;99.90
4655;DHT22;2340;47.814;9.798;2023-02-28T04:19:39;-1.90;99.90
4655;DHT22;2340;47.814;9.798;2023-02-28T04:22:05;-1.90;99.90
4655;DHT22;2340;47.814;9.798;2023-02-28T04:24:30;-1.90;99.90
4655;DHT22;2340;47.814;9.798;2023-02-28T04:26:57;-1.90;99.90
4655;DHT22;2340;47.814;9.798;2023-02-28T04:29:24;-1.90;99.90
4655;DHT22;2340;47.814;9.798;2023-02-28T04:31:50;-1.90;99.90
4655;DHT22;2340;47.814;9.798;2023-02-28T04:34:15;-1.90;99.90
4655;DHT22;2340;47.814;9.798;2023-02-28T04:36:41;-1.90;99.90
4655;DHT22;2340;47.814;9.798;2023-02-28T04:39:07;-1.90;99.90
4655;DHT22;2340;47.814;9.798;2023-02-28T04:41:33;-1.80;99.90
4655;DHT22;2340;47.814;9.798;2023-02-28T04:43:58;-1.90;99.90
4655;DHT22;2340;47.814;9.798;2023-02-28T04:46:24;-1.90;99.90
4655;DHT22;2340;47.814;9.798;2023-02-28T04:48:49;-2.00;99.90
4655;DHT22;2340;47.814;9.798;2023-02-28T04:51:15;-2.00;99.90
4655;DHT22;2340;47.814;9.798;2023-02-28T04:53:41;-2.00;99.90
4655;DHT22;2340;47.814;9.798;2023-02-28T04:56:08;-2.00;99.90
4655;DHT22;2340;47.814;9.798;2023-02-28T04:58:33;-2.00;99.90
4655;DHT22;2340;47.814;9.798;2023-02-28T05:01:03;-1.90;99.90
4655;DHT22;2340;47.814;9.798;2023-02-28T05:03:29;-1.90;99.90
4655;DHT22;2340;47.814;9.798;2023-02-28T05:05:54;-1.90;99.90
4655;DHT22;2340;47.814;9.798;2023-02-28T05:08:20;-1.90;99.90
4655;DHT22;2340;47.814;9.798;2023-02-28T05:10:45;-1.90;99.90
4655;DHT22;2340;47.814;9.798;2023-02-28T05:13:11;-1.90;99.90
4655;DHT22;2340;47.814;9.798;2023-02-28T05:15:37;-1.90;99.90
4655;DHT22;2340;47.814;9.798;2023-02-28T05:18:02;-1.90;99.90
4655;DHT22;2340;47.814;9.798;2023-02-28T05:20:28;-1.90;99.90
4655;DHT22;2340;47.814;9.798;2023-02-28T05:22:53;-1.90;99.90
4655;DHT22;2340;47.814;9.798;2023-02-28T05:25:20;-1.90;99.90
4655;DHT22;2340;47.814;9.798;2023-02-28T05:27:47;-1.90;99.90
4655;DHT22;2340;47.814;9.798;2023-02-28T05:30:13;-1.90;99.90
4655;DHT22;2340;47.814;9.798;2023-02-28T05:32:39;-1.90;99.90
4655;DHT22;2340;47.814;9.798;2023-02-28T05:35:08;-1.80;99.90
4655;DHT22;2340;47.814;9.798;2023-02-28T05:37:34;-1.90;99.90
4655;DHT22;2340;47.814;9.798;2023-02-28T05:39:59;-1.90;99.90
4655;DHT22;2340;47.814;9.798;2023-02-28T05:42:25;-1.90;99.90
4655;DHT22;2340;47.814;9.798;2023-02-28T05:44:50;-1.90;99.90
4655;DHT22;2340;47.814;9.798;2023-02-28T05:47:17;-1.90;99.90
4655;DHT22;2340;47.814;9.798;2023-02-28T05:49:42;-1.90;99.90
4655;DHT22;2340;47.814;9.798;2023-02-28T05:52:08;-1.90;99.90
4655;DHT22;2340;47.814;9.798;2023-02-28T05:54:33;-1.90;99.90
4655;DHT22;2340;47.814;9.798;2023-02-28T05:56:59;-2.00;99.90
4655;DHT22;2340;47.814;9.798;2023-02-28T05:59:24;-1.90;99.90
4655;DHT22;2340;47.814;9.798;2023-02-28T06:01:50;-1.90;99.90
4655;DHT22;2340;47.814;9.798;2023-02-28T06:04:16;-1.90;99.90
4655;DHT22;2340;47.814;9.798;2023-02-28T06:06:47;-1.90;99.90
4655;DHT22;2340;47.814;9.798;2023-02-28T06:09:13;-1.90;99.90
4655;DHT22;2340;47.814;9.798;2023-02-28T06:11:39;-1.90;99.90
4655;DHT22;2340;47.814;9.798;2023-02-28T06:14:05;-1.90;99.90
4655;DHT22;2340;47.814;9.798;2023-02-28T06:16:31;-1.90;99.90
4655;DHT22;2340;47.814;9.798;2023-02-28T06:18:57;-1.90;99.90
4655;DHT22;2340;47.814;9.798;2023-02-28T06:21:23;-1.90;99.90
4655;DHT22;2340;47.814;9.798;2023-02-28T06:23:49;-1.90;99.90
4655;DHT22;2340;47.814;9.798;2023-02-28T06:26:14;-2.00;99.90
4655;DHT22;2340;47.814;9.798;2023-02-28T06:28:40;-1.90;99.90
4655;DHT22;2340;47.814;9.798;2023-02-28T06:31:14;-1.80;99.90
4655;DHT22;2340;47.814;9.798;2023-02-28T06:33:40;-1.80;99.90
4655;DHT22;2340;47.814;9.798;2023-02-28T06:36:06;-1.80;99.90
4655;DHT22;2340;47.814;9.798;2023-02-28T06:38:32;-1.90;99.90
4655;DHT22;2340;47.814;9.798;2023-02-28T06:41:00;-1.80;99.90
4655;DHT22;2340;47.814;9.798;2023-02-28T06:43:27;-1.80;99.90
4655;DHT22;2340;47.814;9.798;2023-02-28T06:45:56;-1.80;99.90
4655;DHT22;2340;47.814;9.798;2023-02-28T06:48:22;-1.90;99.90
4655;DHT22;2340;47.814;9.798;2023-02-28T06:50:47;-1.90;99.90
4655;DHT22;2340;47.814;9.798;2023-02-28T06:53:13;-1.80;99.90
4655;DHT22;2340;47.814;9.798;2023-02-28T06:55:38;-1.90;99.90
4655;DHT22;2340;47.814;9.798;2023-02-28T06:58:04;-1.90;99.90
4655;DHT22;2340;47.814;9.798;2023-02-28T07:00:42;-1.80;99.90
4655;DHT22;2340;47.814;9.798;2023-02-28T07:03:09;-1.80;99.90
4655;DHT22;2340;47.814;9.798;2023-02-28T07:05:35;-1.90;99.90
4655;DHT22;2340;47.814;9.798;2023-02-28T07:08:01;-1.80;99.90
4655;DHT22;2340;47.814;9.798;2023-02-28T07:10:27;-1.80;99.90
4655;DHT22;2340;47.814;9.798;2023-02-28T07:12:52;-1.80;99.90
4655;DHT22;2340;47.814;9.798;2023-02-28T07:15:18;-1.90;99.90
4655;DHT22;2340;47.814;9.798;2023-02-28T07:17:43;-1.90;99.90
4655;DHT22;2340;47.814;9.798;2023-02-28T07:20:09;-2.00;99.90
4655;DHT22;2340;47.814;9.798;2023-02-28T07:22:34;-2.00;99.90
4655;DHT22;2340;47.814;9.798;2023-02-28T07:25:00;-2.00;99.90
4655;DHT22;2340;47.814;9.798;2023-02-28T07:27:25;-2.00;99.90
4655;DHT22;2340;47.814;9.798;2023-02-28T07:29:51;-2.00;99.90
4655;DHT22;2340;47.814;9.798;2023-02-28T07:32:17;-2.00;99.90
4655;DHT22;2340;47.814;9.798;2023-02-28T07:34:43;-2.00;99.90
4655;DHT22;2340;47.814;9.798;2023-02-28T07:37:09;-2.10;99.90
4655;DHT22;2340;47.814;9.798;2023-02-28T07:39:35;-2.00;99.90
4655;DHT22;2340;47.814;9.798;2023-02-28T07:42:03;-2.10;99.90
4655;DHT22;2340;47.814;9.798;2023-02-28T07:44:29;-2.10;99.90
4655;DHT22;2340;47.814;9.798;2023-02-28T07:46:54;-2.10;99.90
4655;DHT22;2340;47.814;9.798;2023-02-28T07:49:20;-2.10;99.90
4655;DHT22;2340;47.814;9.798;2023-02-28T07:51:45;-2.00;99.90
4655;DHT22;2340;47.814;9.798;2023-02-28T07:54:11;-2.00;99.90
4655;DHT22;2340;47.814;9.798;2023-02-28T07:56:36;-2.00;99.90
4655;DHT22;2340;47.814;9.798;2023-02-28T07:59:02;-2.00;99.90
4655;DHT22;2340;47.814;9.798;2023-02-28T08:01:27;-2.00;99.90
4655;DHT22;2340;47.814;9.798;2023-02-28T08:03:53;-1.90;99.90
4655;DHT22;2340;47.814;9.798;2023-02-28T08:06:21;-1.90;99.90
4655;DHT22;2340;47.814;9.798;2023-02-28T08:08:47;-1.90;99.90
4655;DHT22;2340;47.814;9.798;2023-02-28T08:11:12;-1.80;99.90
4655;DHT22;2340;47.814;9.798;2023-02-28T08:13:38;-1.80;99.90
4655;DHT22;2340;47.814;9.798;2023-02-28T08:16:03;-1.70;99.90
4655;DHT22;2340;47.814;9.798;2023-02-28T08:18:29;-1.70;99.90
4655;DHT22;2340;47.814;9.798;2023-02-28T08:20:55;-1.70;99.90
4655;DHT22;2340;47.814;9.798;2023-02-28T08:23:20;-1.60;99.90
4655;DHT22;2340;47.814;9.798;2023-02-28T08:25:52;-1.60;99.90
4655;DHT22;2340;47.814;9.798;2023-02-28T08:28:18;-1.60;99.90
4655;DHT22;2340;47.814;9.798;2023-02-28T08:30:43;-1.50;99.90
4655;DHT22;2340;47.814;9.798;2023-02-28T08:33:09;-1.50;99.90
4655;DHT22;2340;47.814;9.798;2023-02-28T08:35:35;-1.40;99.90
4655;DHT22;2340;47.814;9.798;2023-02-28T08:38:01;-1.40;99.90
4655;DHT22;2340;47.814;9.798;2023-02-28T08:40:26;-1.40;99.90
4655;DHT22;2340;47.814;9.798;2023-02-28T08:42:51;-1.40;99.90
4655;DHT22;2340;47.814;9.798;2023-02-28T08:45:17;-1.40;99.90
4655;DHT22;2340;47.814;9.798;2023-02-28T08:47:42;-1.60;99.90
4655;DHT22;2340;47.814;9.798;2023-02-28T08:50:08;-1.60;99.90
4655;DHT22;2340;47.814;9.798;2023-02-28T08:52:34;-1.50;99.90
4655;DHT22;2340;47.814;9.798;2023-02-28T08:54:59;-1.50;99.90
4655;DHT22;2340;47.814;9.798;2023-02-28T08:57:25;-1.50;99.90
4655;DHT22;2340;47.814;9.798;2023-02-28T08:59:53;-1.50;99.90
4655;DHT22;2340;47.814;9.798;2023-02-28T09:02:19;-1.50;99.90
4655;DHT22;2340;47.814;9.798;2023-02-28T09:04:44;-1.50;99.90
4655;DHT22;2340;47.814;9.798;2023-02-28T09:07:13;-1.50;99.90
4655;DHT22;2340;47.814;9.798;2023-02-28T09:09:39;-1.50;99.90
4655;DHT22;2340;47.814;9.798;2023-02-28T09:12:22;-1.40;99.90
4655;DHT22;2340;47.814;9.798;2023-02-28T09:14:48;-1.30;99.90
4655;DHT22;2340;47.814;9.798;2023-02-28T09:17:14;-1.40;99.90
4655;DHT22;2340;47.814;9.798;2023-02-28T09:19:40;-1.40;99.90
4655;DHT22;2340;47.814;9.798;2023-02-28T09:22:05;-1.50;99.90
4655;DHT22;2340;47.814;9.798;2023-02-28T09:24:31;-1.50;99.90
4655;DHT22;2340;47.814;9.798;2023-02-28T09:26:56;-1.50;99.90
4655;DHT22;2340;47.814;9.798;2023-02-28T09:29:22;-1.50;99.90
4655;DHT22;2340;47.814;9.798;2023-02-28T09:31:48;-1.50;99.90
4655;DHT22;2340;47.814;9.798;2023-02-28T09:34:13;-1.40;99.90
4655;DHT22;2340;47.814;9.798;2023-02-28T09:36:39;-1.40;99.90
4655;DHT22;2340;47.814;9.798;2023-02-28T09:39:05;-1.40;99.90
4655;DHT22;2340;47.814;9.798;2023-02-28T09:41:35;-1.40;99.90
4655;DHT22;2340;47.814;9.798;2023-02-28T09:44:05;-1.30;99.90
4655;DHT22;2340;47.814;9.798;2023-02-28T09:46:53;-1.30;99.90
4655;DHT22;2340;47.814;9.798;2023-02-28T09:49:23;-1.30;99.90
4655;DHT22;2340;47.814;9.798;2023-02-28T09:51:57;-1.30;99.90
4655;DHT22;2340;47.814;9.798;2023-02-28T09:54:24;-1.30;99.90
4655;DHT22;2340;47.814;9.798;2023-02-28T09:56:53;-1.20;99.90
4655;DHT22;2340;47.814;9.798;2023-02-28T09:59:31;-1.10;99.90
4655;DHT22;2340;47.814;9.798;2023-02-28T10:09:50;-1.00;99.90
4655;DHT22;2340;47.814;9.798;2023-02-28T10:12:17;-0.90;99.90
4655;DHT22;2340;47.814;9.798;2023-02-28T10:14:45;-0.90;99.90
4655;DHT22;2340;47.814;9.798;2023-02-28T10:17:12;-0.90;99.90
4655;DHT22;2340;47.814;9.798;2023-02-28T10:22:14;-0.80;99.90
4655;DHT22;2340;47.814;9.798;2023-02-28T10:24:43;-0.80;99.90
4655;DHT22;2340;47.814;9.798;2023-02-28T10:29:42;-0.70;99.90
4655;DHT22;2340;47.814;9.798;2023-02-28T10:32:08;-0.70;99.90
4655;DHT22;2340;47.814;9.798;2023-02-28T10:34:34;-0.70;99.90
4655;DHT22;2340;47.814;9.798;2023-02-28T10:36:59;-0.70;99.90
4655;DHT22;2340;47.814;9.798;2023-02-28T10:39:45;-0.60;99.90
4655;DHT22;2340;47.814;9.798;2023-02-28T10:42:22;-0.50;99.90
4655;DHT22;2340;47.814;9.798;2023-02-28T10:45:04;-0.40;99.90
4655;DHT22;2340;47.814;9.798;2023-02-28T10:47:30;-0.40;99.90
4655;DHT22;2340;47.814;9.798;2023-02-28T10:49:57;-0.40;99.90
4655;DHT22;2340;47.814;9.798;2023-02-28T10:52:41;-0.50;99.90
4655;DHT22;2340;47.814;9.798;2023-02-28T10:55:14;-0.50;99.90
4655;DHT22;2340;47.814;9.798;2023-02-28T10:57:39;-0.40;99.90
4655;DHT22;2340;47.814;9.798;2023-02-28T11:00:11;-0.40;99.90
4655;DHT22;2340;47.814;9.798;2023-02-28T11:02:38;-0.30;99.90
4655;DHT22;2340;47.814;9.798;2023-02-28T11:05:53;-0.30;99.90
4655;DHT22;2340;47.814;9.798;2023-02-28T11:07:57;-0.30;99.90
4655;DHT22;2340;47.814;9.798;2023-02-28T11:10:25;-0.20;99.90
4655;DHT22;2340;47.814;9.798;2023-02-28T11:12:54;-0.20;99.90
4655;DHT22;2340;47.814;9.798;2023-02-28T11:17:52;-0.30;99.90
4655;DHT22;2340;47.814;9.798;2023-02-28T11:20:21;-0.30;99.90
4655;DHT22;2340;47.814;9.798;2023-02-28T11:22:47;-0.30;99.90
4655;DHT22;2340;47.814;9.798;2023-02-28T11:25:20;-0.30;99.90
4655;DHT22;2340;47.814;9.798;2023-02-28T11:27:54;-0.20;99.90
4655;DHT22;2340;47.814;9.798;2023-02-28T11:30:26;-0.30;99.90
4655;DHT22;2340;47.814;9.798;2023-02-28T11:32:52;-0.30;99.90
4655;DHT22;2340;47.814;9.798;2023-02-28T11:35:21;-0.40;99.90
4655;DHT22;2340;47.814;9.798;2023-02-28T11:37:48;-0.40;99.90
4655;DHT22;2340;47.814;9.798;2023-02-28T11:40:14;-0.40;99.90
4655;DHT22;2340;47.814;9.798;2023-02-28T11:42:44;-0.40;99.90
4655;DHT22;2340;47.814;9.798;2023-02-28T11:45:15;-0.40;99.90
4655;DHT22;2340;47.814;9.798;2023-02-28T11:56:02;-0.30;99.90
4655;DHT22;2340;47.814;9.798;2023-02-28T11:58:33;-0.20;99.90
4655;DHT22;2340;47.814;9.798;2023-02-28T12:03:44;-0.20;99.90
4655;DHT22;2340;47.814;9.798;2023-02-28T12:06:16;-0.20;99.90
4655;DHT22;2340;47.814;9.798;2023-02-28T12:14:14;-0.10;99.90
4655;DHT22;2340;47.814;9.798;2023-02-28T12:19:20;-0.10;99.90
4655;DHT22;2340;47.814;9.798;2023-02-28T12:27:00;0.00;99.90
4655;DHT22;2340;47.814;9.798;2023-02-28T12:29:33;0.00;99.90
4655;DHT22;2340;47.814;9.798;2023-02-28T12:32:04;0.00;99.90
4655;DHT22;2340;47.814;9.798;2023-02-28T12:34:36;0.10;99.90
4655;DHT22;2340;47.814;9.798;2023-02-28T12:37:07;0.10;99.90
4655;DHT22;2340;47.814;9.798;2023-02-28T12:39:35;0.10;99.90
4655;DHT22;2340;47.814;9.798;2023-02-28T12:42:08;0.20;99.90
4655;DHT22;2340;47.814;9.798;2023-02-28T12:44:46;0.20;99.90
4655;DHT22;2340;47.814;9.798;2023-02-28T12:47:15;0.20;99.90
4655;DHT22;2340;47.814;9.798;2023-02-28T12:49:54;0.40;99.90
4655;DHT22;2340;47.814;9.798;2023-02-28T12:52:37;0.40;99.90
4655;DHT22;2340;47.814;9.798;2023-02-28T12:55:07;0.40;99.90
4655;DHT22;2340;47.814;9.798;2023-02-28T12:57:39;0.50;99.90
4655;DHT22;2340;47.814;9.798;2023-02-28T13:00:19;0.50;99.90
4655;DHT22;2340;47.814;9.798;2023-02-28T13:05:49;0.60;99.90
4655;DHT22;2340;47.814;9.798;2023-02-28T13:10:54;0.60;99.90
4655;DHT22;2340;47.814;9.798;2023-02-28T13:13:23;0.50;99.90
4655;DHT22;2340;47.814;9.798;2023-02-28T13:16:03;0.40;99.90
4655;DHT22;2340;47.814;9.798;2023-02-28T13:20:55;0.30;99.90
4655;DHT22;2340;47.814;9.798;2023-02-28T13:23:37;0.40;99.90
4655;DHT22;2340;47.814;9.798;2023-02-28T13:26:03;0.40;99.90
4655;DHT22;2340;47.814;9.798;2023-02-28T13:29:04;0.30;99.90
4655;DHT22;2340;47.814;9.798;2023-02-28T13:31:20;0.40;99.90
4655;DHT22;2340;47.814;9.798;2023-02-28T13:38:50;0.40;99.90
4655;DHT22;2340;47.814;9.798;2023-02-28T13:44:11;0.20;99.90
4655;DHT22;2340;47.814;9.798;2023-02-28T14:00:13;0.20;99.90
4655;DHT22;2340;47.814;9.798;2023-02-28T14:02:49;0.10;99.90
4655;DHT22;2340;47.814;9.798;2023-02-28T14:05:19;0.00;99.90
4655;DHT22;2340;47.814;9.798;2023-02-28T14:07:47;0.00;99.90
4655;DHT22;2340;47.814;9.798;2023-02-28T14:10:27;0.00;99.90
4655;DHT22;2340;47.814;9.798;2023-02-28T14:20:38;0.20;99.90
4655;DHT22;2340;47.814;9.798;2023-02-28T14:28:13;0.30;99.90
4655;DHT22;2340;47.814;9.798;2023-02-28T14:38:21;0.40;99.90
4655;DHT22;2340;47.814;9.798;2023-02-28T14:40:50;0.40;99.90
4655;DHT22;2340;47.814;9.798;2023-02-28T14:45:48;0.40;99.90
4655;DHT22;2340;47.814;9.798;2023-02-28T14:48:14;0.40;99.90
4655;DHT22;2340;47.814;9.798;2023-02-28T14:50:41;0.30;99.90
4655;DHT22;2340;47.814;9.798;2023-02-28T14:53:15;0.20;99.90
4655;DHT22;2340;47.814;9.798;2023-02-28T14:55:44;0.20;99.90
4655;DHT22;2340;47.814;9.798;2023-02-28T14:58:20;0.20;99.90
4655;DHT22;2340;47.814;9.798;2023-02-28T15:00:48;0.20;99.90
4655;DHT22;2340;47.814;9.798;2023-02-28T15:03:18;0.20;99.90
4655;DHT22;2340;47.814;9.798;2023-02-28T15:05:51;0.20;99.90
4655;DHT22;2340;47.814;9.798;2023-02-28T15:08:17;0.30;99.90
4655;DHT22;2340;47.814;9.798;2023-02-28T15:10:49;0.30;99.90
4655;DHT22;2340;47.814;9.798;2023-02-28T15:13:15;0.40;99.90
4655;DHT22;2340;47.814;9.798;2023-02-28T15:16:01;0.30;99.90
4655;DHT22;2340;47.814;9.798;2023-02-28T15:18:44;0.20;99.90
4655;DHT22;2340;47.814;9.798;2023-02-28T15:21:13;0.00;99.90
4655;DHT22;2340;47.814;9.798;2023-02-28T15:23:39;0.10;99.90
4655;DHT22;2340;47.814;9.798;2023-02-28T15:26:06;0.10;99.90
4655;DHT22;2340;47.814;9.798;2023-02-28T15:28:31;0.20;99.90
4655;DHT22;2340;47.814;9.798;2023-02-28T15:30:58;0.20;99.90
4655;DHT22;2340;47.814;9.798;2023-02-28T15:33:26;0.20;99.90
4655;DHT22;2340;47.814;9.798;2023-02-28T15:36:02;0.20;99.90
4655;DHT22;2340;47.814;9.798;2023-02-28T15:38:28;0.30;99.90
4655;DHT22;2340;47.814;9.798;2023-02-28T15:40:55;0.30;99.90
4655;DHT22;2340;47.814;9.798;2023-02-28T15:45:51;0.40;99.90
4655;DHT22;2340;47.814;9.798;2023-02-28T15:50:43;0.50;99.90
4655;DHT22;2340;47.814;9.798;2023-02-28T15:53:12;0.50;99.90
4655;DHT22;2340;47.814;9.798;2023-02-28T15:55:38;0.50;99.90
4655;DHT22;2340;47.814;9.798;2023-02-28T15:58:05;0.50;99.90
4655;DHT22;2340;47.814;9.798;2023-02-28T16:00:31;0.50;99.90
4655;DHT22;2340;47.814;9.798;2023-02-28T16:03:00;0.50;99.90
4655;DHT22;2340;47.814;9.798;2023-02-28T16:05:29;0.60;99.90
4655;DHT22;2340;47.814;9.798;2023-02-28T16:08:06;0.60;99.90
4655;DHT22;2340;47.814;9.798;2023-02-28T16:10:36;0.60;99.90
4655;DHT22;2340;47.814;9.798;2023-02-28T16:13:02;0.60;99.90
4655;DHT22;2340;47.814;9.798;2023-02-28T16:15:28;0.50;99.90
4655;DHT22;2340;47.814;9.798;2023-02-28T16:17:54;0.50;99.90
4655;DHT22;2340;47.814;9.798;2023-02-28T16:20:21;0.50;99.90
4655;DHT22;2340;47.814;9.798;2023-02-28T16:22:47;0.50;99.90
4655;DHT22;2340;47.814;9.798;2023-02-28T16:25:16;0.60;99.90
4655;DHT22;2340;47.814;9.798;2023-02-28T16:27:42;0.50;99.90
4655;DHT22;2340;47.814;9.798;2023-02-28T16:30:09;0.50;99.90
4655;DHT22;2340;47.814;9.798;2023-02-28T16:32:39;0.40;99.90
4655;DHT22;2340;47.814;9.798;2023-02-28T16:35:05;0.40;99.90
4655;DHT22;2340;47.814;9.798;2023-02-28T16:37:34;0.40;99.90
4655;DHT22;2340;47.814;9.798;2023-02-28T16:40:00;0.40;99.90
4655;DHT22;2340;47.814;9.798;2023-02-28T16:42:26;0.30;99.90
4655;DHT22;2340;47.814;9.798;2023-02-28T16:44:53;0.20;99.90
4655;DHT22;2340;47.814;9.798;2023-02-28T16:47:19;0.20;99.90
4655;DHT22;2340;47.814;9.798;2023-02-28T16:49:45;0.20;99.90
4655;DHT22;2340;47.814;9.798;2023-02-28T16:52:13;0.20;99.90
4655;DHT22;2340;47.814;9.798;2023-02-28T16:54:38;0.10;99.90
4655;DHT22;2340;47.814;9.798;2023-02-28T16:57:04;0.10;99.90
4655;DHT22;2340;47.814;9.798;2023-02-28T16:59:31;0.00;99.90
4655;DHT22;2340;47.814;9.798;2023-02-28T17:01:57;0.00;99.90
4655;DHT22;2340;47.814;9.798;2023-02-28T17:04:23;0.00;99.90
4655;DHT22;2340;47.814;9.798;2023-02-28T17:06:49;0.00;99.90
4655;DHT22;2340;47.814;9.798;2023-02-28T17:09:22;-0.10;99.90
4655;DHT22;2340;47.814;9.798;2023-02-28T17:11:48;-0.10;99.90
4655;DHT22;2340;47.814;9.798;2023-02-28T17:14:14;-0.20;99.90
4655;DHT22;2340;47.814;9.798;2023-02-28T17:16:40;-0.20;99.90
4655;DHT22;2340;47.814;9.798;2023-02-28T17:19:05;-0.20;99.90
4655;DHT22;2340;47.814;9.798;2023-02-28T17:21:32;-0.20;99.90
4655;DHT22;2340;47.814;9.798;2023-02-28T17:23:58;0.10;99.90
4655;DHT22;2340;47.814;9.798;2023-02-28T17:26:24;0.10;99.90
4655;DHT22;2340;47.814;9.798;2023-02-28T17:28:50;0.00;99.90
4655;DHT22;2340;47.814;9.798;2023-02-28T17:31:16;-0.10;99.90
4655;DHT22;2340;47.814;9.798;2023-02-28T17:33:42;-0.20;99.90
4655;DHT22;2340;47.814;9.798;2023-02-28T17:36:14;-0.30;99.90
4655;DHT22;2340;47.814;9.798;2023-02-28T17:38:40;-0.30;99.90
4655;DHT22;2340;47.814;9.798;2023-02-28T17:41:06;-0.30;99.90
4655;DHT22;2340;47.814;9.798;2023-02-28T17:43:31;-0.40;99.90
4655;DHT22;2340;47.814;9.798;2023-02-28T17:45:57;-0.50;99.90
4655;DHT22;2340;47.814;9.798;2023-02-28T17:48:23;-0.50;99.90
4655;DHT22;2340;47.814;9.798;2023-02-28T17:50:49;-0.50;99.90
4655;DHT22;2340;47.814;9.798;2023-02-28T17:53:15;-0.50;99.90
4655;DHT22;2340;47.814;9.798;2023-02-28T17:55:40;-0.50;99.90
4655;DHT22;2340;47.814;9.798;2023-02-28T17:58:07;-0.50;99.90
4655;DHT22;2340;47.814;9.798;2023-02-28T18:00:34;-0.60;99.90
4655;DHT22;2340;47.814;9.798;2023-02-28T18:02:59;-0.80;99.90
4655;DHT22;2340;47.814;9.798;2023-02-28T18:05:25;-0.80;99.90
4655;DHT22;2340;47.814;9.798;2023-02-28T18:07:51;-0.80;99.90
4655;DHT22;2340;47.814;9.798;2023-02-28T18:10:17;-0.80;99.90
4655;DHT22;2340;47.814;9.798;2023-02-28T18:12:50;-0.80;99.90
4655;DHT22;2340;47.814;9.798;2023-02-28T18:15:16;-0.80;99.90
4655;DHT22;2340;47.814;9.798;2023-02-28T18:17:42;-0.90;99.90
4655;DHT22;2340;47.814;9.798;2023-02-28T18:20:08;-0.90;99.90
4655;DHT22;2340;47.814;9.798;2023-02-28T18:22:34;-0.90;99.90
4655;DHT22;2340;47.814;9.798;2023-02-28T18:25:01;-0.90;99.90